sensor_id;sensor_type;location;lat;lon;timestamp;P1;durP1;ratioP1;P2;durP2;ratioP2
31537;SDS011;18147;51.952;6.146;2023-09-18T00:00:01;81.45;;;49.08;;
31537;SDS011;18147;51.952;6.146;2023-09-18T00:02:33;87.55;;;53.70;;
31537;SDS011;18147;51.952;6.146;2023-09-18T00:04:58;78.07;;;49.15;;
31537;SDS011;18147;51.952;6.146;2023-09-18T00:07:24;87.18;;;51.05;;
31537;SDS011;18147;51.952;6.146;2023-09-18T00:09:52;81.13;;;50.80;;
31537;SDS011;18147;51.952;6.146;2023-09-18T00:12:18;84.97;;;51.55;;
31537;SDS011;18147;51.952;6.146;2023-09-18T00:14:47;85.47;;;50.67;;
31537;SDS011;18147;51.952;6.146;2023-09-18T00:17:13;79.38;;;49.85;;
31537;SDS011;18147;51.952;6.146;2023-09-18T00:19:38;71.57;;;46.33;;
31537;SDS011;18147;51.952;6.146;2023-09-18T00:22:04;81.05;;;49.30;;
31537;SDS011;18147;51.952;6.146;2023-09-18T00:24:31;88.45;;;54.90;;
31537;SDS011;18147;51.952;6.146;2023-09-18T00:26:57;81.85;;;53.30;;
31537;SDS011;18147;51.952;6.146;2023-09-18T00:29:22;84.55;;;49.80;;
31537;SDS011;18147;51.952;6.146;2023-09-18T00:31:48;73.13;;;48.13;;
31537;SDS011;18147;51.952;6.146;2023-09-18T00:34:14;80.30;;;50.33;;
31537;SDS011;18147;51.952;6.146;2023-09-18T00:36:40;89.78;;;52.92;;
31537;SDS011;18147;51.952;6.146;2023-09-18T00:39:06;75.05;;;47.95;;
31537;SDS011;18147;51.952;6.146;2023-09-18T00:41:32;78.85;;;51.45;;
31537;SDS011;18147;51.952;6.146;2023-09-18T00:43:57;70.85;;;46.78;;
31537;SDS011;18147;51.952;6.146;2023-09-18T00:46:23;63.13;;;42.40;;
31537;SDS011;18147;51.952;6.146;2023-09-18T00:48:49;85.45;;;52.22;;
31537;SDS011;18147;51.952;6.146;2023-09-18T00:51:16;88.18;;;51.60;;
31537;SDS011;18147;51.952;6.146;2023-09-18T00:53:45;78.38;;;49.17;;
31537;SDS011;18147;51.952;6.146;2023-09-18T00:58:40;66.75;;;44.17;;
31537;SDS011;18147;51.952;6.146;2023-09-18T01:01:06;67.40;;;45.83;;
31537;SDS011;18147;51.952;6.146;2023-09-18T01:03:34;65.18;;;43.90;;
31537;SDS011;18147;51.952;6.146;2023-09-18T01:05:59;66.13;;;43.78;;
31537;SDS011;18147;51.952;6.146;2023-09-18T01:08:25;69.03;;;45.88;;
31537;SDS011;18147;51.952;6.146;2023-09-18T01:16:53;58.28;;;40.97;;
31537;SDS011;18147;51.952;6.146;2023-09-18T01:19:35;61.15;;;42.08;;
31537;SDS011;18147;51.952;6.146;2023-09-18T01:22:11;61.90;;;41.42;;
31537;SDS011;18147;51.952;6.146;2023-09-18T01:24:45;64.40;;;44.10;;
31537;SDS011;18147;51.952;6.146;2023-09-18T01:27:15;69.47;;;46.15;;
31537;SDS011;18147;51.952;6.146;2023-09-18T01:29:43;65.35;;;42.90;;
31537;SDS011;18147;51.952;6.146;2023-09-18T01:32:09;65.10;;;43.80;;
31537;SDS011;18147;51.952;6.146;2023-09-18T01:34:36;71.35;;;46.53;;
31537;SDS011;18147;51.952;6.146;2023-09-18T01:37:07;73.72;;;47.33;;
31537;SDS011;18147;51.952;6.146;2023-09-18T01:39:35;68.00;;;42.10;;
31537;SDS011;18147;51.952;6.146;2023-09-18T01:42:02;68.00;;;43.60;;
31537;SDS011;18147;51.952;6.146;2023-09-18T01:44:33;60.37;;;42.67;;
31537;SDS011;18147;51.952;6.146;2023-09-18T01:47:02;54.00;;;39.75;;
31537;SDS011;18147;51.952;6.146;2023-09-18T01:51:58;61.40;;;38.75;;
31537;SDS011;18147;51.952;6.146;2023-09-18T01:54:24;56.97;;;37.92;;
31537;SDS011;18147;51.952;6.146;2023-09-18T01:56:51;63.63;;;40.13;;
31537;SDS011;18147;51.952;6.146;2023-09-18T01:59:20;51.40;;;37.38;;
31537;SDS011;18147;51.952;6.146;2023-09-18T02:01:47;64.57;;;40.30;;
31537;SDS011;18147;51.952;6.146;2023-09-18T02:04:13;46.88;;;34.42;;
31537;SDS011;18147;51.952;6.146;2023-09-18T02:06:39;48.53;;;33.75;;
31537;SDS011;18147;51.952;6.146;2023-09-18T02:09:05;50.65;;;35.13;;
31537;SDS011;18147;51.952;6.146;2023-09-18T02:11:36;45.83;;;32.63;;
31537;SDS011;18147;51.952;6.146;2023-09-18T02:14:04;51.63;;;33.83;;
31537;SDS011;18147;51.952;6.146;2023-09-18T02:16:34;54.03;;;34.13;;
31537;SDS011;18147;51.952;6.146;2023-09-18T02:19:06;54.45;;;34.65;;
31537;SDS011;18147;51.952;6.146;2023-09-18T02:21:33;54.95;;;36.35;;
31537;SDS011;18147;51.952;6.146;2023-09-18T02:23:59;49.17;;;33.72;;
31537;SDS011;18147;51.952;6.146;2023-09-18T02:26:28;57.45;;;35.17;;
31537;SDS011;18147;51.952;6.146;2023-09-18T02:28:55;51.53;;;33.20;;
31537;SDS011;18147;51.952;6.146;2023-09-18T02:31:23;44.70;;;29.38;;
31537;SDS011;18147;51.952;6.146;2023-09-18T02:33:48;44.67;;;30.58;;
31537;SDS011;18147;51.952;6.146;2023-09-18T02:36:14;44.22;;;28.13;;
31537;SDS011;18147;51.952;6.146;2023-09-18T02:38:40;34.78;;;22.73;;
31537;SDS011;18147;51.952;6.146;2023-09-18T02:41:06;37.65;;;20.75;;
31537;SDS011;18147;51.952;6.146;2023-09-18T02:43:32;28.33;;;19.88;;
31537;SDS011;18147;51.952;6.146;2023-09-18T02:45:58;28.52;;;18.10;;
31537;SDS011;18147;51.952;6.146;2023-09-18T02:48:24;33.03;;;18.80;;
31537;SDS011;18147;51.952;6.146;2023-09-18T02:50:50;36.28;;;18.25;;
31537;SDS011;18147;51.952;6.146;2023-09-18T02:53:20;29.73;;;18.70;;
31537;SDS011;18147;51.952;6.146;2023-09-18T02:55:48;31.25;;;18.17;;
31537;SDS011;18147;51.952;6.146;2023-09-18T02:58:15;26.85;;;17.55;;
31537;SDS011;18147;51.952;6.146;2023-09-18T03:00:43;32.85;;;18.15;;
31537;SDS011;18147;51.952;6.146;2023-09-18T03:03:09;29.63;;;17.38;;
31537;SDS011;18147;51.952;6.146;2023-09-18T03:05:36;25.95;;;16.42;;
31537;SDS011;18147;51.952;6.146;2023-09-18T03:08:02;27.90;;;17.83;;
31537;SDS011;18147;51.952;6.146;2023-09-18T03:10:32;27.15;;;17.45;;
31537;SDS011;18147;51.952;6.146;2023-09-18T03:12:59;30.95;;;17.65;;
31537;SDS011;18147;51.952;6.146;2023-09-18T03:15:25;28.15;;;18.13;;
31537;SDS011;18147;51.952;6.146;2023-09-18T03:17:58;25.63;;;17.00;;
31537;SDS011;18147;51.952;6.146;2023-09-18T03:20:25;26.48;;;17.35;;
31537;SDS011;18147;51.952;6.146;2023-09-18T03:22:55;27.55;;;17.15;;
31537;SDS011;18147;51.952;6.146;2023-09-18T03:25:22;27.13;;;17.02;;
31537;SDS011;18147;51.952;6.146;2023-09-18T03:27:49;29.98;;;16.80;;
31537;SDS011;18147;51.952;6.146;2023-09-18T03:30:17;27.35;;;16.88;;
31537;SDS011;18147;51.952;6.146;2023-09-18T03:32:44;25.85;;;17.55;;
31537;SDS011;18147;51.952;6.146;2023-09-18T03:35:11;30.17;;;17.45;;
31537;SDS011;18147;51.952;6.146;2023-09-18T03:37:47;24.95;;;16.65;;
31537;SDS011;18147;51.952;6.146;2023-09-18T03:40:15;28.30;;;17.10;;
31537;SDS011;18147;51.952;6.146;2023-09-18T03:42:42;28.15;;;17.52;;
31537;SDS011;18147;51.952;6.146;2023-09-18T03:45:08;25.33;;;17.15;;
31537;SDS011;18147;51.952;6.146;2023-09-18T03:47:35;27.23;;;16.17;;
31537;SDS011;18147;51.952;6.146;2023-09-18T03:50:01;26.38;;;14.25;;
31537;SDS011;18147;51.952;6.146;2023-09-18T03:52:28;22.50;;;12.98;;
31537;SDS011;18147;51.952;6.146;2023-09-18T03:54:55;19.70;;;13.05;;
31537;SDS011;18147;51.952;6.146;2023-09-18T03:57:21;21.60;;;14.80;;
31537;SDS011;18147;51.952;6.146;2023-09-18T03:59:47;26.80;;;14.57;;
31537;SDS011;18147;51.952;6.146;2023-09-18T04:02:13;27.90;;;14.43;;
31537;SDS011;18147;51.952;6.146;2023-09-18T04:04:39;26.20;;;15.18;;
31537;SDS011;18147;51.952;6.146;2023-09-18T04:07:06;23.58;;;15.15;;
31537;SDS011;18147;51.952;6.146;2023-09-18T04:09:35;24.13;;;14.77;;
31537;SDS011;18147;51.952;6.146;2023-09-18T04:12:02;26.73;;;13.55;;
31537;SDS011;18147;51.952;6.146;2023-09-18T04:14:32;29.20;;;14.45;;
31537;SDS011;18147;51.952;6.146;2023-09-18T04:16:58;27.23;;;14.43;;
31537;SDS011;18147;51.952;6.146;2023-09-18T04:19:25;26.38;;;13.52;;
31537;SDS011;18147;51.952;6.146;2023-09-18T04:21:52;23.58;;;15.10;;
31537;SDS011;18147;51.952;6.146;2023-09-18T04:24:17;25.52;;;14.55;;
31537;SDS011;18147;51.952;6.146;2023-09-18T04:26:43;23.67;;;14.93;;
31537;SDS011;18147;51.952;6.146;2023-09-18T04:29:09;24.55;;;14.43;;
31537;SDS011;18147;51.952;6.146;2023-09-18T04:31:37;27.55;;;15.20;;
31537;SDS011;18147;51.952;6.146;2023-09-18T04:34:06;26.92;;;15.00;;
31537;SDS011;18147;51.952;6.146;2023-09-18T04:36:33;18.42;;;13.82;;
31537;SDS011;18147;51.952;6.146;2023-09-18T04:38:58;24.83;;;15.43;;
31537;SDS011;18147;51.952;6.146;2023-09-18T04:41:24;36.15;;;14.70;;
31537;SDS011;18147;51.952;6.146;2023-09-18T04:43:52;29.23;;;15.88;;
31537;SDS011;18147;51.952;6.146;2023-09-18T04:46:18;25.23;;;15.30;;
31537;SDS011;18147;51.952;6.146;2023-09-18T04:48:44;26.20;;;14.60;;
31537;SDS011;18147;51.952;6.146;2023-09-18T04:51:10;27.27;;;14.82;;
31537;SDS011;18147;51.952;6.146;2023-09-18T04:53:35;22.48;;;14.50;;
31537;SDS011;18147;51.952;6.146;2023-09-18T04:56:01;24.50;;;14.35;;
31537;SDS011;18147;51.952;6.146;2023-09-18T04:58:28;22.63;;;13.95;;
31537;SDS011;18147;51.952;6.146;2023-09-18T05:00:56;25.33;;;13.57;;
31537;SDS011;18147;51.952;6.146;2023-09-18T05:03:23;27.40;;;13.88;;
31537;SDS011;18147;51.952;6.146;2023-09-18T05:05:49;27.10;;;15.13;;
31537;SDS011;18147;51.952;6.146;2023-09-18T05:08:14;26.23;;;13.07;;
31537;SDS011;18147;51.952;6.146;2023-09-18T05:10:40;24.40;;;12.35;;
31537;SDS011;18147;51.952;6.146;2023-09-18T05:13:05;22.00;;;10.95;;
31537;SDS011;18147;51.952;6.146;2023-09-18T05:15:32;21.55;;;12.05;;
31537;SDS011;18147;51.952;6.146;2023-09-18T05:17:59;19.45;;;12.40;;
31537;SDS011;18147;51.952;6.146;2023-09-18T05:20:28;23.33;;;12.07;;
31537;SDS011;18147;51.952;6.146;2023-09-18T05:22:56;22.52;;;12.93;;
31537;SDS011;18147;51.952;6.146;2023-09-18T05:25:23;21.40;;;13.40;;
31537;SDS011;18147;51.952;6.146;2023-09-18T05:27:59;21.92;;;13.25;;
31537;SDS011;18147;51.952;6.146;2023-09-18T05:30:29;21.70;;;12.85;;
31537;SDS011;18147;51.952;6.146;2023-09-18T05:32:58;24.50;;;13.60;;
31537;SDS011;18147;51.952;6.146;2023-09-18T05:36:03;25.92;;;13.68;;
31537;SDS011;18147;51.952;6.146;2023-09-18T05:38:23;22.15;;;13.93;;
31537;SDS011;18147;51.952;6.146;2023-09-18T05:40:48;21.88;;;13.23;;
31537;SDS011;18147;51.952;6.146;2023-09-18T05:43:14;24.05;;;13.70;;
31537;SDS011;18147;51.952;6.146;2023-09-18T05:45:40;30.45;;;15.40;;
31537;SDS011;18147;51.952;6.146;2023-09-18T05:48:06;29.10;;;15.75;;
31537;SDS011;18147;51.952;6.146;2023-09-18T05:50:33;26.83;;;13.95;;
31537;SDS011;18147;51.952;6.146;2023-09-18T05:53:00;25.60;;;14.80;;
31537;SDS011;18147;51.952;6.146;2023-09-18T05:55:32;22.13;;;13.75;;
31537;SDS011;18147;51.952;6.146;2023-09-18T05:57:59;25.25;;;13.20;;
31537;SDS011;18147;51.952;6.146;2023-09-18T06:00:29;30.55;;;15.07;;
31537;SDS011;18147;51.952;6.146;2023-09-18T06:02:58;28.73;;;15.63;;
31537;SDS011;18147;51.952;6.146;2023-09-18T06:05:24;22.50;;;13.15;;
31537;SDS011;18147;51.952;6.146;2023-09-18T06:07:50;22.35;;;13.70;;
31537;SDS011;18147;51.952;6.146;2023-09-18T06:10:16;21.50;;;13.07;;
31537;SDS011;18147;51.952;6.146;2023-09-18T06:12:43;18.35;;;13.85;;
31537;SDS011;18147;51.952;6.146;2023-09-18T06:15:10;18.85;;;12.43;;
31537;SDS011;18147;51.952;6.146;2023-09-18T06:17:40;19.27;;;12.60;;
31537;SDS011;18147;51.952;6.146;2023-09-18T06:20:08;23.40;;;13.05;;
31537;SDS011;18147;51.952;6.146;2023-09-18T06:22:41;22.20;;;13.20;;
31537;SDS011;18147;51.952;6.146;2023-09-18T06:25:09;28.75;;;14.10;;
31537;SDS011;18147;51.952;6.146;2023-09-18T06:27:35;23.25;;;13.38;;
31537;SDS011;18147;51.952;6.146;2023-09-18T06:30:02;24.20;;;11.45;;
31537;SDS011;18147;51.952;6.146;2023-09-18T06:32:28;27.10;;;13.23;;
31537;SDS011;18147;51.952;6.146;2023-09-18T06:34:55;21.52;;;13.27;;
31537;SDS011;18147;51.952;6.146;2023-09-18T06:37:23;26.65;;;13.50;;
31537;SDS011;18147;51.952;6.146;2023-09-18T06:39:49;23.85;;;12.38;;
31537;SDS011;18147;51.952;6.146;2023-09-18T06:42:14;22.83;;;13.38;;
31537;SDS011;18147;51.952;6.146;2023-09-18T06:44:40;24.38;;;13.73;;
31537;SDS011;18147;51.952;6.146;2023-09-18T06:47:06;24.63;;;12.27;;
31537;SDS011;18147;51.952;6.146;2023-09-18T06:49:35;25.80;;;13.35;;
31537;SDS011;18147;51.952;6.146;2023-09-18T06:52:01;21.65;;;11.75;;
31537;SDS011;18147;51.952;6.146;2023-09-18T06:54:26;20.13;;;12.65;;
31537;SDS011;18147;51.952;6.146;2023-09-18T06:56:52;22.85;;;12.93;;
31537;SDS011;18147;51.952;6.146;2023-09-18T06:59:18;20.75;;;10.73;;
31537;SDS011;18147;51.952;6.146;2023-09-18T07:01:44;24.58;;;10.88;;
31537;SDS011;18147;51.952;6.146;2023-09-18T07:04:09;20.50;;;10.70;;
31537;SDS011;18147;51.952;6.146;2023-09-18T07:06:35;18.35;;;11.07;;
31537;SDS011;18147;51.952;6.146;2023-09-18T07:09:02;16.92;;;9.35;;
31537;SDS011;18147;51.952;6.146;2023-09-18T07:11:30;16.77;;;9.30;;
31537;SDS011;18147;51.952;6.146;2023-09-18T07:13:58;16.02;;;8.68;;
31537;SDS011;18147;51.952;6.146;2023-09-18T07:16:31;15.18;;;8.77;;
31537;SDS011;18147;51.952;6.146;2023-09-18T07:18:56;17.55;;;8.95;;
31537;SDS011;18147;51.952;6.146;2023-09-18T07:21:22;16.60;;;9.05;;
31537;SDS011;18147;51.952;6.146;2023-09-18T07:23:50;18.08;;;9.13;;
31537;SDS011;18147;51.952;6.146;2023-09-18T07:26:16;19.27;;;8.30;;
31537;SDS011;18147;51.952;6.146;2023-09-18T07:28:42;15.95;;;7.28;;
31537;SDS011;18147;51.952;6.146;2023-09-18T07:31:09;11.15;;;7.32;;
31537;SDS011;18147;51.952;6.146;2023-09-18T07:33:37;17.73;;;7.93;;
31537;SDS011;18147;51.952;6.146;2023-09-18T07:36:03;17.35;;;7.03;;
31537;SDS011;18147;51.952;6.146;2023-09-18T07:38:32;11.45;;;6.20;;
31537;SDS011;18147;51.952;6.146;2023-09-18T07:40:58;13.43;;;7.25;;
31537;SDS011;18147;51.952;6.146;2023-09-18T07:43:24;10.65;;;5.90;;
31537;SDS011;18147;51.952;6.146;2023-09-18T07:45:52;9.85;;;6.38;;
31537;SDS011;18147;51.952;6.146;2023-09-18T07:48:19;8.18;;;5.25;;
31537;SDS011;18147;51.952;6.146;2023-09-18T07:50:46;9.90;;;5.28;;
31537;SDS011;18147;51.952;6.146;2023-09-18T07:53:14;11.32;;;4.85;;
31537;SDS011;18147;51.952;6.146;2023-09-18T07:55:40;10.02;;;4.78;;
31537;SDS011;18147;51.952;6.146;2023-09-18T07:58:06;11.27;;;4.38;;
31537;SDS011;18147;51.952;6.146;2023-09-18T08:00:34;8.40;;;4.22;;
31537;SDS011;18147;51.952;6.146;2023-09-18T08:03:00;8.23;;;4.10;;
31537;SDS011;18147;51.952;6.146;2023-09-18T08:05:34;8.82;;;4.47;;
31537;SDS011;18147;51.952;6.146;2023-09-18T08:08:00;7.10;;;3.90;;
31537;SDS011;18147;51.952;6.146;2023-09-18T08:10:32;7.63;;;4.13;;
31537;SDS011;18147;51.952;6.146;2023-09-18T08:13:03;8.73;;;4.38;;
31537;SDS011;18147;51.952;6.146;2023-09-18T08:15:28;9.20;;;3.65;;
31537;SDS011;18147;51.952;6.146;2023-09-18T08:17:56;4.63;;;2.90;;
31537;SDS011;18147;51.952;6.146;2023-09-18T08:20:22;5.43;;;3.47;;
31537;SDS011;18147;51.952;6.146;2023-09-18T08:22:48;7.65;;;3.38;;
31537;SDS011;18147;51.952;6.146;2023-09-18T08:25:14;8.85;;;3.35;;
31537;SDS011;18147;51.952;6.146;2023-09-18T08:27:43;4.38;;;3.13;;
31537;SDS011;18147;51.952;6.146;2023-09-18T08:30:10;5.53;;;3.35;;
31537;SDS011;18147;51.952;6.146;2023-09-18T08:32:40;4.07;;;2.75;;
31537;SDS011;18147;51.952;6.146;2023-09-18T08:35:07;9.85;;;3.60;;
31537;SDS011;18147;51.952;6.146;2023-09-18T08:37:33;9.05;;;3.50;;
31537;SDS011;18147;51.952;6.146;2023-09-18T08:39:59;6.65;;;3.72;;
31537;SDS011;18147;51.952;6.146;2023-09-18T08:42:34;5.93;;;3.13;;
31537;SDS011;18147;51.952;6.146;2023-09-18T08:45:03;8.43;;;3.28;;
31537;SDS011;18147;51.952;6.146;2023-09-18T08:47:34;6.43;;;3.03;;
31537;SDS011;18147;51.952;6.146;2023-09-18T08:50:01;8.30;;;3.42;;
31537;SDS011;18147;51.952;6.146;2023-09-18T08:52:29;5.45;;;3.03;;
31537;SDS011;18147;51.952;6.146;2023-09-18T08:54:58;8.57;;;3.38;;
31537;SDS011;18147;51.952;6.146;2023-09-18T08:57:29;6.90;;;3.45;;
31537;SDS011;18147;51.952;6.146;2023-09-18T08:59:58;9.07;;;3.15;;
31537;SDS011;18147;51.952;6.146;2023-09-18T09:02:29;8.98;;;3.30;;
31537;SDS011;18147;51.952;6.146;2023-09-18T09:04:58;5.18;;;2.88;;
31537;SDS011;18147;51.952;6.146;2023-09-18T09:07:25;7.70;;;3.17;;
31537;SDS011;18147;51.952;6.146;2023-09-18T09:09:53;6.97;;;2.90;;
31537;SDS011;18147;51.952;6.146;2023-09-18T09:13:02;7.05;;;3.05;;
31537;SDS011;18147;51.952;6.146;2023-09-18T09:15:20;7.38;;;3.38;;
31537;SDS011;18147;51.952;6.146;2023-09-18T09:17:46;7.35;;;3.55;;
31537;SDS011;18147;51.952;6.146;2023-09-18T09:20:12;4.78;;;3.13;;
31537;SDS011;18147;51.952;6.146;2023-09-18T09:22:44;4.32;;;3.30;;
31537;SDS011;18147;51.952;6.146;2023-09-18T09:25:22;6.60;;;2.63;;
31537;SDS011;18147;51.952;6.146;2023-09-18T09:27:57;4.57;;;3.13;;
31537;SDS011;18147;51.952;6.146;2023-09-18T09:30:25;6.57;;;3.10;;
31537;SDS011;18147;51.952;6.146;2023-09-18T09:32:59;4.35;;;2.70;;
31537;SDS011;18147;51.952;6.146;2023-09-18T09:35:27;5.18;;;2.72;;
31537;SDS011;18147;51.952;6.146;2023-09-18T09:37:59;4.25;;;2.80;;
31537;SDS011;18147;51.952;6.146;2023-09-18T09:40:27;10.27;;;3.08;;
31537;SDS011;18147;51.952;6.146;2023-09-18T09:42:58;6.25;;;3.20;;
31537;SDS011;18147;51.952;6.146;2023-09-18T09:45:27;8.00;;;3.00;;
31537;SDS011;18147;51.952;6.146;2023-09-18T09:47:58;5.93;;;3.22;;
31537;SDS011;18147;51.952;6.146;2023-09-18T09:50:32;5.63;;;2.78;;
31537;SDS011;18147;51.952;6.146;2023-09-18T09:52:59;6.32;;;2.83;;
31537;SDS011;18147;51.952;6.146;2023-09-18T09:55:29;5.10;;;3.00;;
31537;SDS011;18147;51.952;6.146;2023-09-18T09:57:58;6.22;;;3.13;;
31537;SDS011;18147;51.952;6.146;2023-09-18T10:00:25;6.10;;;2.53;;
31537;SDS011;18147;51.952;6.146;2023-09-18T10:03:09;8.93;;;2.92;;
31537;SDS011;18147;51.952;6.146;2023-09-18T10:05:41;7.47;;;3.17;;
31537;SDS011;18147;51.952;6.146;2023-09-18T10:13:23;5.65;;;2.80;;
31537;SDS011;18147;51.952;6.146;2023-09-18T10:15:54;7.13;;;2.95;;
31537;SDS011;18147;51.952;6.146;2023-09-18T10:18:45;9.15;;;2.95;;
31537;SDS011;18147;51.952;6.146;2023-09-18T10:21:41;7.20;;;3.00;;
31537;SDS011;18147;51.952;6.146;2023-09-18T10:24:30;4.85;;;2.70;;
31537;SDS011;18147;51.952;6.146;2023-09-18T10:26:59;9.05;;;2.67;;
31537;SDS011;18147;51.952;6.146;2023-09-18T10:29:33;6.15;;;3.25;;
31537;SDS011;18147;51.952;6.146;2023-09-18T10:32:03;11.75;;;3.00;;
31537;SDS011;18147;51.952;6.146;2023-09-18T10:34:36;6.18;;;2.95;;
31537;SDS011;18147;51.952;6.146;2023-09-18T10:37:05;8.60;;;3.10;;
31537;SDS011;18147;51.952;6.146;2023-09-18T10:39:36;6.72;;;2.70;;
31537;SDS011;18147;51.952;6.146;2023-09-18T10:42:04;6.95;;;3.45;;
31537;SDS011;18147;51.952;6.146;2023-09-18T10:44:33;14.10;;;3.58;;
31537;SDS011;18147;51.952;6.146;2023-09-18T10:47:00;12.57;;;3.35;;
31537;SDS011;18147;51.952;6.146;2023-09-18T10:49:28;10.38;;;3.65;;
31537;SDS011;18147;51.952;6.146;2023-09-18T10:51:58;8.43;;;3.95;;
31537;SDS011;18147;51.952;6.146;2023-09-18T10:54:25;7.55;;;3.63;;
31537;SDS011;18147;51.952;6.146;2023-09-18T10:56:57;8.40;;;3.67;;
31537;SDS011;18147;51.952;6.146;2023-09-18T10:59:23;8.75;;;3.30;;
31537;SDS011;18147;51.952;6.146;2023-09-18T11:01:53;13.82;;;4.13;;
31537;SDS011;18147;51.952;6.146;2023-09-18T11:04:22;6.40;;;3.58;;
31537;SDS011;18147;51.952;6.146;2023-09-18T11:09:25;14.38;;;4.25;;
31537;SDS011;18147;51.952;6.146;2023-09-18T11:11:54;11.05;;;3.38;;
31537;SDS011;18147;51.952;6.146;2023-09-18T11:14:43;5.80;;;3.63;;
31537;SDS011;18147;51.952;6.146;2023-09-18T11:17:34;15.00;;;3.83;;
31537;SDS011;18147;51.952;6.146;2023-09-18T11:22:55;9.07;;;3.40;;
31537;SDS011;18147;51.952;6.146;2023-09-18T11:28:14;7.35;;;3.53;;
31537;SDS011;18147;51.952;6.146;2023-09-18T11:30:49;7.55;;;3.13;;
31537;SDS011;18147;51.952;6.146;2023-09-18T11:36:11;4.80;;;3.15;;
31537;SDS011;18147;51.952;6.146;2023-09-18T11:39:00;7.93;;;3.28;;
31537;SDS011;18147;51.952;6.146;2023-09-18T11:41:33;10.32;;;3.67;;
31537;SDS011;18147;51.952;6.146;2023-09-18T11:46:45;5.30;;;2.83;;
31537;SDS011;18147;51.952;6.146;2023-09-18T11:49:14;3.63;;;2.92;;
31537;SDS011;18147;51.952;6.146;2023-09-18T11:51:44;11.15;;;3.50;;
31537;SDS011;18147;51.952;6.146;2023-09-18T11:54:11;7.38;;;3.15;;
31537;SDS011;18147;51.952;6.146;2023-09-18T11:56:43;7.18;;;3.65;;
31537;SDS011;18147;51.952;6.146;2023-09-18T11:59:12;4.82;;;2.95;;
31537;SDS011;18147;51.952;6.146;2023-09-18T12:01:38;5.80;;;2.95;;
31537;SDS011;18147;51.952;6.146;2023-09-18T12:04:11;9.63;;;3.65;;
31537;SDS011;18147;51.952;6.146;2023-09-18T12:06:40;7.72;;;3.33;;
31537;SDS011;18147;51.952;6.146;2023-09-18T12:09:06;8.25;;;3.17;;
31537;SDS011;18147;51.952;6.146;2023-09-18T12:11:34;8.93;;;4.05;;
31537;SDS011;18147;51.952;6.146;2023-09-18T12:14:07;12.27;;;4.95;;
31537;SDS011;18147;51.952;6.146;2023-09-18T12:16:39;12.07;;;4.85;;
31537;SDS011;18147;51.952;6.146;2023-09-18T12:19:08;8.85;;;4.22;;
31537;SDS011;18147;51.952;6.146;2023-09-18T12:21:42;10.90;;;4.82;;
31537;SDS011;18147;51.952;6.146;2023-09-18T12:24:45;9.25;;;5.45;;
31537;SDS011;18147;51.952;6.146;2023-09-18T12:27:11;11.00;;;5.28;;
31537;SDS011;18147;51.952;6.146;2023-09-18T12:29:36;7.80;;;5.00;;
31537;SDS011;18147;51.952;6.146;2023-09-18T12:32:11;9.73;;;4.25;;
31537;SDS011;18147;51.952;6.146;2023-09-18T12:34:42;7.95;;;4.80;;
31537;SDS011;18147;51.952;6.146;2023-09-18T12:37:08;7.32;;;4.40;;
31537;SDS011;18147;51.952;6.146;2023-09-18T12:39:40;11.68;;;5.22;;
31537;SDS011;18147;51.952;6.146;2023-09-18T12:42:08;11.38;;;4.93;;
31537;SDS011;18147;51.952;6.146;2023-09-18T12:44:34;8.55;;;4.43;;
31537;SDS011;18147;51.952;6.146;2023-09-18T12:46:59;7.40;;;4.30;;
31537;SDS011;18147;51.952;6.146;2023-09-18T12:49:29;10.68;;;5.03;;
31537;SDS011;18147;51.952;6.146;2023-09-18T12:51:57;5.68;;;3.78;;
31537;SDS011;18147;51.952;6.146;2023-09-18T12:54:43;8.07;;;4.15;;
31537;SDS011;18147;51.952;6.146;2023-09-18T12:57:11;5.82;;;3.50;;
31537;SDS011;18147;51.952;6.146;2023-09-18T12:59:41;10.95;;;4.20;;
31537;SDS011;18147;51.952;6.146;2023-09-18T13:02:07;10.15;;;3.95;;
31537;SDS011;18147;51.952;6.146;2023-09-18T13:04:40;7.97;;;3.92;;
31537;SDS011;18147;51.952;6.146;2023-09-18T13:07:07;6.15;;;3.50;;
31537;SDS011;18147;51.952;6.146;2023-09-18T13:09:40;5.72;;;3.50;;
31537;SDS011;18147;51.952;6.146;2023-09-18T13:12:06;7.25;;;3.38;;
31537;SDS011;18147;51.952;6.146;2023-09-18T13:20:05;7.65;;;4.05;;
31537;SDS011;18147;51.952;6.146;2023-09-18T13:22:36;7.18;;;3.55;;
31537;SDS011;18147;51.952;6.146;2023-09-18T13:25:06;13.05;;;4.10;;
31537;SDS011;18147;51.952;6.146;2023-09-18T13:27:33;6.82;;;3.38;;
31537;SDS011;18147;51.952;6.146;2023-09-18T13:29:59;8.13;;;3.50;;
31537;SDS011;18147;51.952;6.146;2023-09-18T13:32:38;6.40;;;3.53;;
31537;SDS011;18147;51.952;6.146;2023-09-18T13:35:04;3.90;;;2.90;;
31537;SDS011;18147;51.952;6.146;2023-09-18T13:37:33;4.70;;;3.03;;
31537;SDS011;18147;51.952;6.146;2023-09-18T13:40:00;5.78;;;3.40;;
31537;SDS011;18147;51.952;6.146;2023-09-18T13:42:28;5.20;;;3.38;;
31537;SDS011;18147;51.952;6.146;2023-09-18T13:44:58;4.20;;;3.10;;
31537;SDS011;18147;51.952;6.146;2023-09-18T13:47:33;5.65;;;3.10;;
31537;SDS011;18147;51.952;6.146;2023-09-18T13:49:59;6.45;;;3.00;;
31537;SDS011;18147;51.952;6.146;2023-09-18T13:52:29;5.03;;;3.13;;
31537;SDS011;18147;51.952;6.146;2023-09-18T13:54:59;15.10;;;3.92;;
31537;SDS011;18147;51.952;6.146;2023-09-18T13:57:25;7.88;;;3.20;;
31537;SDS011;18147;51.952;6.146;2023-09-18T13:59:52;5.93;;;3.22;;
31537;SDS011;18147;51.952;6.146;2023-09-18T14:02:19;5.35;;;3.20;;
31537;SDS011;18147;51.952;6.146;2023-09-18T14:04:45;8.07;;;3.45;;
31537;SDS011;18147;51.952;6.146;2023-09-18T14:07:11;5.28;;;3.00;;
31537;SDS011;18147;51.952;6.146;2023-09-18T14:09:40;8.75;;;3.13;;
31537;SDS011;18147;51.952;6.146;2023-09-18T14:12:05;9.70;;;3.10;;
31537;SDS011;18147;51.952;6.146;2023-09-18T14:14:34;8.43;;;2.95;;
31537;SDS011;18147;51.952;6.146;2023-09-18T14:17:00;6.38;;;3.38;;
31537;SDS011;18147;51.952;6.146;2023-09-18T14:19:27;7.68;;;3.42;;
31537;SDS011;18147;51.952;6.146;2023-09-18T14:21:53;4.65;;;3.05;;
31537;SDS011;18147;51.952;6.146;2023-09-18T14:24:22;7.00;;;3.30;;
31537;SDS011;18147;51.952;6.146;2023-09-18T14:26:52;6.47;;;2.88;;
31537;SDS011;18147;51.952;6.146;2023-09-18T14:29:20;4.75;;;2.83;;
31537;SDS011;18147;51.952;6.146;2023-09-18T14:31:46;6.05;;;3.40;;
31537;SDS011;18147;51.952;6.146;2023-09-18T14:34:12;4.28;;;2.75;;
31537;SDS011;18147;51.952;6.146;2023-09-18T14:36:38;5.43;;;2.60;;
31537;SDS011;18147;51.952;6.146;2023-09-18T14:39:06;3.92;;;2.88;;
31537;SDS011;18147;51.952;6.146;2023-09-18T14:41:34;7.82;;;2.90;;
31537;SDS011;18147;51.952;6.146;2023-09-18T14:44:01;3.80;;;2.35;;
31537;SDS011;18147;51.952;6.146;2023-09-18T14:46:28;5.95;;;2.72;;
31537;SDS011;18147;51.952;6.146;2023-09-18T14:48:58;5.78;;;2.65;;
31537;SDS011;18147;51.952;6.146;2023-09-18T14:51:32;5.65;;;2.65;;
31537;SDS011;18147;51.952;6.146;2023-09-18T14:54:00;6.25;;;2.60;;
31537;SDS011;18147;51.952;6.146;2023-09-18T14:56:27;5.10;;;2.50;;
31537;SDS011;18147;51.952;6.146;2023-09-18T14:58:53;5.70;;;2.58;;
31537;SDS011;18147;51.952;6.146;2023-09-18T15:01:20;5.57;;;2.70;;
31537;SDS011;18147;51.952;6.146;2023-09-18T15:03:47;6.78;;;2.85;;
31537;SDS011;18147;51.952;6.146;2023-09-18T15:06:16;7.22;;;3.00;;
31537;SDS011;18147;51.952;6.146;2023-09-18T15:08:42;6.10;;;2.80;;
31537;SDS011;18147;51.952;6.146;2023-09-18T15:11:09;9.45;;;3.35;;
31537;SDS011;18147;51.952;6.146;2023-09-18T15:13:36;5.22;;;2.65;;
31537;SDS011;18147;51.952;6.146;2023-09-18T15:16:02;5.50;;;2.90;;